Time;durP1;ratioP1;P1;durP2;ratioP2;P2;SDS_P1;SDS_P2;PMS_P1;PMS_P2;Temp;Humidity;BMP_temperature;BMP_pressure;BME280_temperature;BME280_humidity;BME280_pressure;Samples;Min_cycle;Max_cycle;Signal;HPM_P1;HPM_P2
2022/01/01 00:00:33;;;;;;;;;;;10.40;99.90;;;;;;4993628;28;19944;-82
2022/01/01 00:02:59;;;;;;;;;;;10.40;99.90;;;;;;5024507;28;19922;-79
2022/01/01 00:05:25;;;;;;;;;;;10.30;99.90;;;;;;5004982;28;20402;-80
2022/01/01 00:07:50;;;;;;;;;;;10.30;99.90;;;;;;5003138;28;20421;-81
2022/01/01 00:10:17;;;;;;;;;;;10.20;99.90;;;;;;4991609;28;19928;-82
2022/01/01 00:12:42;;;;;;;;;;;10.20;99.90;;;;;;4990704;28;19967;-82
2022/01/01 00:15:08;;;;;;;;;;;10.20;99.90;;;;;;5023948;28;19933;-81
2022/01/01 00:17:33;;;;;;;;;;;10.10;99.90;;;;;;5009646;28;19925;-82
2022/01/01 00:19:58;;;;;;;;;;;10.10;99.90;;;;;;5044994;28;19922;-81
2022/01/01 00:22:24;;;;;;;;;;;10.10;99.90;;;;;;5027645;28;19921;-81
2022/01/01 00:24:49;;;;;;;;;;;10.00;99.90;;;;;;5030563;28;20343;-81
2022/01/01 00:27:15;;;;;;;;;;;10.00;99.90;;;;;;5030566;28;20020;-81
2022/01/01 00:29:40;;;;;;;;;;;10.00;99.90;;;;;;4997116;28;19975;-81
2022/01/01 00:32:06;;;;;;;;;;;9.90;99.90;;;;;;5013255;28;19925;-80
2022/01/01 00:34:33;;;;;;;;;;;9.90;99.90;;;;;;5030459;28;19922;-81
2022/01/01 00:36:58;;;;;;;;;;;9.90;99.90;;;;;;5030381;28;19925;-81
2022/01/01 00:39:24;;;;;;;;;;;9.80;99.90;;;;;;5030196;28;20424;-81
2022/01/01 00:41:49;;;;;;;;;;;9.80;99.90;;;;;;4997836;28;19922;-81
2022/01/01 00:44:14;;;;;;;;;;;9.80;99.90;;;;;;4996948;28;19928;-81
2022/01/01 00:46:40;;;;;;;;;;;9.80;99.90;;;;;;5030054;28;19933;-81
2022/01/01 00:49:06;;;;;;;;;;;9.80;99.90;;;;;;5046798;28;20012;-80
2022/01/01 00:51:31;;;;;;;;;;;9.90;99.90;;;;;;5030124;28;19961;-81
2022/01/01 00:53:57;;;;;;;;;;;10.00;99.90;;;;;;4997321;28;20070;-81
2022/01/01 00:56:22;;;;;;;;;;;10.00;99.90;;;;;;5030546;28;19922;-82
2022/01/01 00:58:48;;;;;;;;;;;10.10;99.90;;;;;;4996926;28;20015;-81
2022/01/01 01:01:13;;;;;;;;;;;10.10;99.90;;;;;;5030014;28;20001;-81
2022/01/01 01:03:39;;;;;;;;;;;10.20;99.90;;;;;;4996652;28;19921;-81
2022/01/01 01:06:04;;;;;;;;;;;10.20;99.90;;;;;;5029994;28;19933;-81
2022/01/01 01:08:30;;;;;;;;;;;10.20;99.90;;;;;;4997263;28;20372;-81
2022/01/01 01:10:57;;;;;;;;;;;10.30;99.90;;;;;;5029620;28;19922;-81
2022/01/01 01:13:24;;;;;;;;;;;10.30;99.90;;;;;;4996391;28;20024;-81
2022/01/01 01:15:49;;;;;;;;;;;10.40;99.90;;;;;;4997445;28;19969;-81
2022/01/01 01:18:14;;;;;;;;;;;10.40;99.90;;;;;;4996890;28;20356;-81
2022/01/01 01:20:40;;;;;;;;;;;10.40;99.90;;;;;;4995450;28;19931;-81
2022/01/01 01:23:06;;;;;;;;;;;10.40;99.90;;;;;;5029231;28;20366;-81
2022/01/01 01:25:39;;;;;;;;;;;10.40;99.90;;;;;;5012600;28;19925;-81
2022/01/01 01:28:06;;;;;;;;;;;10.40;99.90;;;;;;5012949;28;19932;-81
2022/01/01 01:30:32;;;;;;;;;;;10.40;99.90;;;;;;4995246;28;19921;-81
2022/01/01 01:32:57;;;;;;;;;;;10.40;99.90;;;;;;5012962;28;20336;-81
2022/01/01 01:35:23;;;;;;;;;;;10.40;99.90;;;;;;4996477;28;19975;-81
2022/01/01 01:37:48;;;;;;;;;;;10.40;99.90;;;;;;4996443;28;19932;-81
2022/01/01 01:40:14;;;;;;;;;;;10.50;99.90;;;;;;4996258;28;19922;-81
2022/01/01 01:42:39;;;;;;;;;;;10.40;99.90;;;;;;4996178;28;19979;-81
2022/01/01 01:45:05;;;;;;;;;;;10.40;99.90;;;;;;4996630;28;19925;-79
2022/01/01 01:47:37;;;;;;;;;;;10.40;99.90;;;;;;5045535;28;20286;-79
2022/01/01 01:50:05;;;;;;;;;;;10.40;99.90;;;;;;5029166;28;19928;-79
2022/01/01 01:52:33;;;;;;;;;;;10.40;99.90;;;;;;4996051;28;19922;-79
2022/01/01 01:54:59;;;;;;;;;;;10.40;99.90;;;;;;4995975;28;19983;-79
2022/01/01 01:57:25;;;;;;;;;;;10.40;99.90;;;;;;4995938;28;19925;-79
2022/01/01 01:59:51;;;;;;;;;;;10.40;99.90;;;;;;5012093;28;19933;-79
2022/01/01 02:02:19;;;;;;;;;;;10.30;99.90;;;;;;5044702;28;21250;-79
2022/01/01 02:04:44;;;;;;;;;;;10.30;99.90;;;;;;5045187;28;19926;-78
2022/01/01 02:07:11;;;;;;;;;;;10.30;99.90;;;;;;5028462;28;19967;-79
2022/01/01 02:09:37;;;;;;;;;;;10.30;99.90;;;;;;5011725;28;20015;-79
2022/01/01 02:12:03;;;;;;;;;;;10.30;99.90;;;;;;5029086;28;19922;-79
2022/01/01 02:14:54;;;;;;;;;;;10.30;99.90;;;;;;5028326;28;19925;-79
2022/01/01 02:17:20;;;;;;;;;;;10.20;99.90;;;;;;5012190;28;20316;-78
2022/01/01 02:19:45;;;;;;;;;;;10.20;99.90;;;;;;5011515;28;19921;-79
2022/01/01 02:22:11;;;;;;;;;;;10.10;99.90;;;;;;4995450;28;19921;-79
2022/01/01 02:24:36;;;;;;;;;;;10.10;99.90;;;;;;5044576;28;19922;-79
2022/01/01 02:27:02;;;;;;;;;;;10.10;99.90;;;;;;5028214;28;19921;-79
2022/01/01 02:29:28;;;;;;;;;;;10.20;99.90;;;;;;5028228;28;19925;-79
2022/01/01 02:31:53;;;;;;;;;;;10.20;99.90;;;;;;5026502;28;20390;-79
2022/01/01 02:34:19;;;;;;;;;;;10.20;99.90;;;;;;5011227;28;19972;-79
2022/01/01 02:36:45;;;;;;;;;;;10.20;99.90;;;;;;5011558;28;20340;-79
2022/01/01 02:39:19;;;;;;;;;;;10.20;99.90;;;;;;4995290;28;20382;-79
2022/01/01 02:41:45;;;;;;;;;;;10.20;99.90;;;;;;4995072;28;19921;-79
2022/01/01 02:44:11;;;;;;;;;;;10.20;99.90;;;;;;5011010;28;20302;-79
2022/01/01 02:46:36;;;;;;;;;;;10.20;99.90;;;;;;4994869;28;19926;-79
2022/01/01 02:49:02;;;;;;;;;;;10.20;99.90;;;;;;4995048;28;19921;-78
2022/01/01 02:51:28;;;;;;;;;;;10.20;99.90;;;;;;4995033;28;19931;-79
2022/01/01 02:53:53;;;;;;;;;;;10.20;99.90;;;;;;4994836;28;19922;-79
2022/01/01 02:56:19;;;;;;;;;;;10.20;99.90;;;;;;5044206;28;19968;-79
2022/01/01 02:58:44;;;;;;;;;;;10.10;99.90;;;;;;5027664;28;19933;-79
2022/01/01 03:01:10;;;;;;;;;;;10.20;99.90;;;;;;5011190;28;19944;-79
2022/01/01 03:03:35;;;;;;;;;;;10.20;99.90;;;;;;5011395;28;19964;-79
2022/01/01 03:06:01;;;;;;;;;;;10.20;99.90;;;;;;5011016;28;20043;-79
2022/01/01 03:08:27;;;;;;;;;;;10.20;99.90;;;;;;4995082;28;19928;-79
2022/01/01 03:10:52;;;;;;;;;;;10.20;99.90;;;;;;5011216;28;19922;-79
2022/01/01 03:13:18;;;;;;;;;;;10.20;99.90;;;;;;5027531;28;20012;-79
2022/01/01 03:15:43;;;;;;;;;;;10.30;99.90;;;;;;5027763;28;20291;-79
2022/01/01 03:18:09;;;;;;;;;;;10.30;99.90;;;;;;5011201;28;20008;-79
2022/01/01 03:20:35;;;;;;;;;;;10.30;99.90;;;;;;5011347;28;20011;-79
2022/01/01 03:23:00;;;;;;;;;;;10.30;99.90;;;;;;4994554;28;19922;-79
2022/01/01 03:25:25;;;;;;;;;;;10.30;99.90;;;;;;5027361;28;20019;-79
2022/01/01 03:27:51;;;;;;;;;;;10.40;99.90;;;;;;4994697;28;20385;-79
2022/01/01 03:30:16;;;;;;;;;;;10.40;99.90;;;;;;5011422;28;19921;-79
2022/01/01 03:32:42;;;;;;;;;;;10.40;99.90;;;;;;4994270;28;20023;-79
2022/01/01 03:35:07;;;;;;;;;;;10.40;99.90;;;;;;5010694;28;19926;-79
2022/01/01 03:37:33;;;;;;;;;;;10.40;99.90;;;;;;5010789;28;19928;-79
2022/01/01 03:39:58;;;;;;;;;;;10.40;99.90;;;;;;4994385;28;19921;-79
2022/01/01 03:42:24;;;;;;;;;;;10.40;99.90;;;;;;5011252;28;19922;-79
2022/01/01 03:44:49;;;;;;;;;;;10.40;99.90;;;;;;4994191;28;19953;-79
2022/01/01 03:47:15;;;;;;;;;;;10.50;99.90;;;;;;5026972;28;19921;-79
2022/01/01 03:49:40;;;;;;;;;;;10.50;99.90;;;;;;4994766;28;19921;-79
2022/01/01 03:52:06;;;;;;;;;;;10.50;99.90;;;;;;5027404;28;20446;-79
2022/01/01 03:54:32;;;;;;;;;;;10.50;99.90;;;;;;5045280;28;19972;-79
2022/01/01 03:56:57;;;;;;;;;;;10.50;99.90;;;;;;5047587;28;20402;-79
2022/01/01 03:59:25;;;;;;;;;;;10.50;99.90;;;;;;5014472;28;20452;-79
2022/01/01 04:01:50;;;;;;;;;;;10.60;99.90;;;;;;4998173;28;19922;-79
2022/01/01 04:04:16;;;;;;;;;;;10.60;99.90;;;;;;4997856;28;19971;-79
2022/01/01 04:06:41;;;;;;;;;;;10.60;99.90;;;;;;5030645;28;19926;-79
2022/01/01 04:09:07;;;;;;;;;;;10.60;99.90;;;;;;5014342;28;19922;-79
2022/01/01 04:11:32;;;;;;;;;;;10.60;99.90;;;;;;5047917;28;19968;-79
2022/01/01 04:13:58;;;;;;;;;;;10.60;99.90;;;;;;5030553;28;19933;-79
2022/01/01 04:16:23;;;;;;;;;;;10.60;99.90;;;;;;5047149;28;19921;-79
2022/01/01 04:18:49;;;;;;;;;;;10.60;99.90;;;;;;5013988;28;20393;-79
2022/01/01 04:21:15;;;;;;;;;;;10.70;99.90;;;;;;5030684;28;19928;-79
2022/01/01 04:23:42;;;;;;;;;;;10.70;99.90;;;;;;5013521;28;19931;-79
2022/01/01 04:26:07;;;;;;;;;;;10.70;99.90;;;;;;5046715;28;20447;-79
2022/01/01 04:28:33;;;;;;;;;;;10.70;99.90;;;;;;5014071;28;19922;-79
2022/01/01 04:30:59;;;;;;;;;;;10.70;99.90;;;;;;5030893;28;19921;-79
2022/01/01 04:33:24;;;;;;;;;;;10.70;99.90;;;;;;5029935;28;19929;-79
2022/01/01 04:35:50;;;;;;;;;;;10.70;99.90;;;;;;5047206;28;19929;-79
2022/01/01 04:38:58;;;;;;;;;;;10.70;99.90;;;;;;5013758;28;19968;-79
2022/01/01 04:41:05;;;;;;;;;;;10.70;99.90;;;;;;5006293;28;20378;-79
2022/01/01 04:43:31;;;;;;;;;;;10.80;99.90;;;;;;5013844;28;20336;-79
2022/01/01 04:45:56;;;;;;;;;;;10.70;99.90;;;;;;4997274;28;19926;-79
2022/01/01 04:48:22;;;;;;;;;;;10.80;99.90;;;;;;5013438;28;20393;-79
2022/01/01 04:50:48;;;;;;;;;;;10.80;99.90;;;;;;5030225;28;19925;-78
2022/01/01 04:53:16;;;;;;;;;;;10.80;99.90;;;;;;5046321;28;19993;-79
2022/01/01 04:55:42;;;;;;;;;;;10.80;99.90;;;;;;5029729;28;20192;-79
2022/01/01 04:58:08;;;;;;;;;;;10.80;99.90;;;;;;5013884;28;20403;-79
2022/01/01 05:00:33;;;;;;;;;;;10.80;99.90;;;;;;4997089;28;19927;-79
2022/01/01 05:02:59;;;;;;;;;;;10.80;99.90;;;;;;5029938;28;19922;-79
2022/01/01 05:05:24;;;;;;;;;;;10.90;99.90;;;;;;5013352;28;19926;-79
2022/01/01 05:07:50;;;;;;;;;;;10.80;99.90;;;;;;5046122;28;20095;-79
2022/01/01 05:10:16;;;;;;;;;;;10.90;99.90;;;;;;5029887;28;19922;-79
2022/01/01 05:12:41;;;;;;;;;;;10.80;99.90;;;;;;5013473;28;19971;-79
2022/01/01 05:15:07;;;;;;;;;;;10.90;99.90;;;;;;4996784;28;20362;-79
2022/01/01 05:17:32;;;;;;;;;;;10.90;99.90;;;;;;4996887;28;19984;-79
2022/01/01 05:19:58;;;;;;;;;;;10.90;99.90;;;;;;5013239;28;19959;-79
2022/01/01 05:22:23;;;;;;;;;;;10.90;99.90;;;;;;5013002;28;20400;-78
2022/01/01 05:24:49;;;;;;;;;;;10.90;99.90;;;;;;4996383;28;19984;-79
2022/01/01 05:27:14;;;;;;;;;;;10.90;99.90;;;;;;4996820;28;19922;-78
2022/01/01 05:29:40;;;;;;;;;;;10.90;99.90;;;;;;4996499;28;19925;-78
2022/01/01 05:32:05;;;;;;;;;;;10.90;99.90;;;;;;5029393;28;20405;-79
2022/01/01 05:34:31;;;;;;;;;;;10.90;99.90;;;;;;4996359;28;20293;-78
2022/01/01 05:36:56;;;;;;;;;;;10.90;99.90;;;;;;5012969;28;19921;-78
2022/01/01 05:39:22;;;;;;;;;;;10.90;99.90;;;;;;5012786;28;19925;-79
2022/01/01 05:41:52;;;;;;;;;;;10.90;99.90;;;;;;5012811;28;19948;-79
2022/01/01 05:44:18;;;;;;;;;;;10.90;99.90;;;;;;4995844;28;19980;-78
2022/01/01 05:46:43;;;;;;;;;;;10.90;99.90;;;;;;5012605;28;19929;-79
2022/01/01 05:49:08;;;;;;;;;;;10.90;99.90;;;;;;5012568;28;20349;-78
2022/01/01 05:51:34;;;;;;;;;;;11.00;99.90;;;;;;5028980;28;19921;-78
2022/01/01 05:53:59;;;;;;;;;;;11.00;99.90;;;;;;5011877;28;19949;-78
2022/01/01 05:56:25;;;;;;;;;;;11.00;99.90;;;;;;4996101;28;20267;-78
2022/01/01 05:58:50;;;;;;;;;;;11.00;99.90;;;;;;5012366;28;19921;-79
2022/01/01 06:01:16;;;;;;;;;;;11.00;99.90;;;;;;5012409;28;19948;-78
2022/01/01 06:03:41;;;;;;;;;;;11.00;99.90;;;;;;5011662;28;19948;-78
2022/01/01 06:06:07;;;;;;;;;;;11.00;99.90;;;;;;5028451;28;20301;-78
2022/01/01 06:08:32;;;;;;;;;;;11.00;99.90;;;;;;5045295;28;19965;-78
2022/01/01 06:10:58;;;;;;;;;;;11.00;99.90;;;;;;5045235;28;20059;-78
2022/01/01 06:13:23;;;;;;;;;;;11.00;99.90;;;;;;5028183;28;19921;-79
2022/01/01 06:15:49;;;;;;;;;;;11.00;99.90;;;;;;5045179;28;19929;-78
2022/01/01 06:18:14;;;;;;;;;;;11.00;99.90;;;;;;5011403;28;20029;-78
2022/01/01 06:20:42;;;;;;;;;;;11.00;99.90;;;;;;5045320;28;19926;-78
2022/01/01 06:23:07;;;;;;;;;;;11.00;99.90;;;;;;4995356;28;19929;-78
2022/01/01 06:25:34;;;;;;;;;;;11.00;99.90;;;;;;5027955;28;19925;-78
2022/01/01 06:27:59;;;;;;;;;;;11.00;99.90;;;;;;5011546;28;19921;-78
2022/01/01 06:30:25;;;;;;;;;;;11.00;99.90;;;;;;5011507;28;19943;-78
2022/01/01 06:32:51;;;;;;;;;;;11.00;99.90;;;;;;4994913;28;19922;-79
2022/01/01 06:35:17;;;;;;;;;;;11.00;99.90;;;;;;5027853;28;19926;-79
2022/01/01 06:37:42;;;;;;;;;;;11.00;99.90;;;;;;4995573;28;20432;-78
2022/01/01 06:40:08;;;;;;;;;;;11.00;99.90;;;;;;5028420;28;19929;-78
2022/01/01 06:42:34;;;;;;;;;;;10.90;99.90;;;;;;5011082;28;19921;-78
2022/01/01 06:44:59;;;;;;;;;;;11.00;99.90;;;;;;5010985;28;19939;-78
2022/01/01 06:47:25;;;;;;;;;;;11.00;99.90;;;;;;4995033;28;19922;-78
2022/01/01 06:49:50;;;;;;;;;;;11.00;99.90;;;;;;5011803;28;20298;-78
2022/01/01 06:52:16;;;;;;;;;;;11.00;99.90;;;;;;4995151;28;19921;-78
2022/01/01 06:54:41;;;;;;;;;;;11.00;99.90;;;;;;4994928;28;19957;-78
2022/01/01 06:57:07;;;;;;;;;;;11.00;99.90;;;;;;5027897;28;19921;-78
2022/01/01 06:59:32;;;;;;;;;;;11.00;99.90;;;;;;5027881;28;19979;-78
2022/01/01 07:01:58;;;;;;;;;;;11.00;99.90;;;;;;5027760;28;19925;-78
2022/01/01 07:04:23;;;;;;;;;;;11.00;99.90;;;;;;5043979;28;20381;-78
2022/01/01 07:06:49;;;;;;;;;;;11.00;99.90;;;;;;5027849;28;19960;-78
2022/01/01 07:09:14;;;;;;;;;;;11.00;99.90;;;;;;5011015;28;19921;-78
2022/01/01 07:11:40;;;;;;;;;;;11.00;99.90;;;;;;5028047;28;20348;-78
2022/01/01 07:14:06;;;;;;;;;;;11.00;99.90;;;;;;5010942;28;19928;-78
2022/01/01 07:16:31;;;;;;;;;;;11.10;99.90;;;;;;5011203;28;20516;-78
2022/01/01 07:18:56;;;;;;;;;;;11.00;99.90;;;;;;5011075;28;19976;-78
2022/01/01 07:21:22;;;;;;;;;;;11.00;99.90;;;;;;5011063;28;19922;-78
2022/01/01 07:23:47;;;;;;;;;;;11.00;99.90;;;;;;5010740;28;20004;-78
2022/01/01 07:26:13;;;;;;;;;;;11.00;99.90;;;;;;5027238;28;20305;-78
2022/01/01 07:28:38;;;;;;;;;;;11.10;99.90;;;;;;5044760;28;19922;-78
2022/01/01 07:31:04;;;;;;;;;;;11.10;99.90;;;;;;4998845;28;20358;-79
2022/01/01 07:33:29;;;;;;;;;;;11.10;99.90;;;;;;4998525;28;19928;-79
2022/01/01 07:35:55;;;;;;;;;;;11.10;99.90;;;;;;5048005;28;19922;-79
2022/01/01 07:38:22;;;;;;;;;;;11.10;99.90;;;;;;5047416;28;19929;-78
2022/01/01 07:40:48;;;;;;;;;;;11.10;99.90;;;;;;5031103;28;19926;-81
2022/01/01 07:43:14;;;;;;;;;;;11.20;99.90;;;;;;5031489;28;20418;-80
2022/01/01 07:45:40;;;;;;;;;;;11.20;99.90;;;;;;5015553;28;19937;-81
2022/01/01 07:48:06;;;;;;;;;;;11.20;99.90;;;;;;5030498;28;19922;-86
2022/01/01 07:50:32;;;;;;;;;;;11.30;99.90;;;;;;4994382;28;19928;-83
2022/01/01 07:52:57;;;;;;;;;;;11.30;99.90;;;;;;5027168;28;19948;-82
2022/01/01 07:55:23;;;;;;;;;;;11.30;99.90;;;;;;5028334;28;19964;-79
2022/01/01 07:57:48;;;;;;;;;;;11.30;99.90;;;;;;5008840;28;20416;-78
2022/01/01 08:00:14;;;;;;;;;;;11.30;99.90;;;;;;5014868;28;19932;-80
2022/01/01 08:02:43;;;;;;;;;;;11.30;99.90;;;;;;5030600;28;19979;-80
2022/01/01 08:05:09;;;;;;;;;;;11.30;99.90;;;;;;5014052;28;19929;-80
2022/01/01 08:07:35;;;;;;;;;;;11.30;99.90;;;;;;5031122;28;19922;-80
2022/01/01 08:10:00;;;;;;;;;;;11.30;99.90;;;;;;5047917;28;20343;-80
2022/01/01 08:12:26;;;;;;;;;;;11.40;99.90;;;;;;5046588;28;19928;-83
2022/01/01 08:14:55;;;;;;;;;;;11.40;99.90;;;;;;4997284;28;19928;-83
2022/01/01 08:17:20;;;;;;;;;;;11.40;99.90;;;;;;4997863;28;20333;-83
2022/01/01 08:19:46;;;;;;;;;;;11.40;99.90;;;;;;4998217;28;19921;-83
2022/01/01 08:22:14;;;;;;;;;;;11.40;99.90;;;;;;4998312;28;19921;-83
2022/01/01 08:24:40;;;;;;;;;;;11.50;99.90;;;;;;5013827;28;19937;-82
2022/01/01 08:27:06;;;;;;;;;;;11.50;99.90;;;;;;4997598;28;19944;-83
2022/01/01 08:29:32;;;;;;;;;;;11.50;99.90;;;;;;5036687;28;20394;-83
2022/01/01 08:31:57;;;;;;;;;;;11.50;99.90;;;;;;5038704;28;19977;-83
2022/01/01 08:34:23;;;;;;;;;;;11.60;99.90;;;;;;5030468;28;20077;-83
2022/01/01 08:36:48;;;;;;;;;;;11.60;99.90;;;;;;5030590;28;19922;-83
2022/01/01 08:39:17;;;;;;;;;;;11.60;99.90;;;;;;5030057;28;19921;-82
2022/01/01 08:41:43;;;;;;;;;;;11.60;99.90;;;;;;4998204;28;20339;-83
2022/01/01 08:44:09;;;;;;;;;;;11.70;99.90;;;;;;4993780;28;19922;-80
2022/01/01 08:46:34;;;;;;;;;;;11.70;99.90;;;;;;5019860;28;19971;-79
2022/01/01 08:49:00;;;;;;;;;;;11.70;99.90;;;;;;5014120;28;19921;-79
2022/01/01 08:51:26;;;;;;;;;;;11.70;99.90;;;;;;5030339;28;20309;-78
2022/01/01 08:53:51;;;;;;;;;;;11.70;99.90;;;;;;5029963;28;20012;-79
2022/01/01 08:56:17;;;;;;;;;;;11.70;99.90;;;;;;5013655;28;20301;-79
2022/01/01 08:58:43;;;;;;;;;;;11.80;99.90;;;;;;5008474;28;20354;-81
2022/01/01 09:01:08;;;;;;;;;;;11.80;99.90;;;;;;5023315;28;19921;-79
2022/01/01 09:03:35;;;;;;;;;;;11.80;99.90;;;;;;5027193;28;19921;-80
2022/01/01 09:06:01;;;;;;;;;;;11.80;99.90;;;;;;4995491;28;20352;-84
2022/01/01 09:08:26;;;;;;;;;;;11.80;99.90;;;;;;4991509;28;19976;-83
2022/01/01 09:10:52;;;;;;;;;;;11.80;99.90;;;;;;4997267;28;20427;-84
2022/01/01 09:13:17;;;;;;;;;;;11.90;99.90;;;;;;5029299;28;20016;-83
2022/01/01 09:15:43;;;;;;;;;;;11.90;99.90;;;;;;5029889;28;19922;-82
2022/01/01 09:18:08;;;;;;;;;;;12.00;99.90;;;;;;4997023;28;19928;-82
2022/01/01 09:20:33;;;;;;;;;;;12.00;99.90;;;;;;4996408;28;19921;-83
2022/01/01 09:22:59;;;;;;;;;;;12.10;99.90;;;;;;4996353;28;20363;-83
2022/01/01 09:25:24;;;;;;;;;;;12.10;99.90;;;;;;4988119;28;20005;-83
2022/01/01 09:27:50;;;;;;;;;;;12.20;99.90;;;;;;4994404;28;19921;-82
2022/01/01 09:30:15;;;;;;;;;;;12.20;99.90;;;;;;5002601;28;19922;-82
2022/01/01 09:32:41;;;;;;;;;;;12.20;99.90;;;;;;4996609;28;19921;-83
2022/01/01 09:35:06;;;;;;;;;;;12.30;99.90;;;;;;4996071;28;19928;-83
2022/01/01 09:37:32;;;;;;;;;;;12.40;99.90;;;;;;4996279;28;19929;-83
2022/01/01 09:39:58;;;;;;;;;;;12.40;99.90;;;;;;5029429;28;19921;-82
2022/01/01 09:42:24;;;;;;;;;;;12.50;99.90;;;;;;5046101;28;20329;-81
2022/01/01 09:44:51;;;;;;;;;;;12.60;99.90;;;;;;5028692;28;19922;-82
2022/01/01 09:47:16;;;;;;;;;;;12.60;99.90;;;;;;5021591;28;20406;-82
2022/01/01 09:49:42;;;;;;;;;;;12.60;99.90;;;;;;5026440;28;19965;-82
2022/01/01 09:52:09;;;;;;;;;;;12.60;99.90;;;;;;5008496;28;19925;-82
2022/01/01 09:54:35;;;;;;;;;;;12.60;99.90;;;;;;4992677;28;19922;-82
2022/01/01 09:57:00;;;;;;;;;;;12.60;99.90;;;;;;5040988;28;20008;-81
2022/01/01 09:59:26;;;;;;;;;;;12.60;99.90;;;;;;4995996;28;20005;-80
2022/01/01 10:01:51;;;;;;;;;;;12.50;99.90;;;;;;5029426;28;20023;-81
2022/01/01 10:04:17;;;;;;;;;;;12.50;99.90;;;;;;5028131;28;19922;-80
2022/01/01 10:06:43;;;;;;;;;;;12.50;99.90;;;;;;5028153;28;19925;-79
2022/01/01 10:09:09;;;;;;;;;;;12.50;99.90;;;;;;5005758;28;19948;-83
2022/01/01 10:11:35;;;;;;;;;;;12.40;99.90;;;;;;5020809;28;20409;-83
2022/01/01 10:14:05;;;;;;;;;;;12.40;99.90;;;;;;5027845;28;20397;-81
2022/01/01 10:16:31;;;;;;;;;;;12.40;99.90;;;;;;5028415;28;19922;-79
2022/01/01 10:18:57;;;;;;;;;;;12.30;99.90;;;;;;5027068;28;19928;-80
2022/01/01 10:21:27;;;;;;;;;;;12.30;99.90;;;;;;5019579;28;19921;-80
2022/01/01 10:23:53;;;;;;;;;;;12.30;99.90;;;;;;5044383;28;19928;-80
2022/01/01 10:29:15;;;;;;;;;;;12.20;99.90;;;;;;5011766;28;19929;-80
2022/01/01 10:32:03;;;;;;;;;;;12.20;99.90;;;;;;5028143;28;19922;-80
2022/01/01 10:34:33;;;;;;;;;;;12.20;99.90;;;;;;5027885;28;20200;-80
2022/01/01 10:36:59;;;;;;;;;;;12.20;99.90;;;;;;5004132;28;19926;-80
2022/01/01 10:39:24;;;;;;;;;;;12.20;99.90;;;;;;4994005;28;19929;-80
2022/01/01 10:41:52;;;;;;;;;;;12.10;99.90;;;;;;4997149;28;20016;-80
2022/01/01 10:44:28;;;;;;;;;;;12.10;99.90;;;;;;5012075;28;19929;-80
2022/01/01 10:46:53;;;;;;;;;;;12.10;99.90;;;;;;5011664;28;20287;-80
2022/01/01 10:49:50;;;;;;;;;;;12.10;99.90;;;;;;5044097;28;20156;-80
2022/01/01 10:52:16;;;;;;;;;;;12.10;99.90;;;;;;5028106;28;19921;-80
2022/01/01 10:54:48;;;;;;;;;;;12.20;99.90;;;;;;4994727;28;19927;-80
2022/01/01 10:57:20;;;;;;;;;;;12.10;99.90;;;;;;4994997;28;20477;-80
2022/01/01 10:59:45;;;;;;;;;;;12.10;99.90;;;;;;5026564;28;19925;-80
2022/01/01 11:02:11;;;;;;;;;;;12.10;99.90;;;;;;4994585;28;19928;-80
2022/01/01 11:04:36;;;;;;;;;;;12.10;99.90;;;;;;5010735;28;19963;-78
2022/01/01 11:07:03;;;;;;;;;;;12.10;99.90;;;;;;4994640;28;19930;-81
2022/01/01 11:09:29;;;;;;;;;;;12.10;99.90;;;;;;5027364;28;19921;-80
2022/01/01 11:12:02;;;;;;;;;;;12.10;99.90;;;;;;5026433;28;19921;-80
2022/01/01 11:14:28;;;;;;;;;;;12.20;99.90;;;;;;4994174;28;19922;-81
2022/01/01 11:16:54;;;;;;;;;;;12.20;99.90;;;;;;5028029;28;20366;-81
2022/01/01 11:19:21;;;;;;;;;;;12.20;99.90;;;;;;5027626;28;19921;-80
2022/01/01 11:21:47;;;;;;;;;;;12.30;99.90;;;;;;5026903;28;19968;-80
2022/01/01 11:24:13;;;;;;;;;;;12.30;99.90;;;;;;5027164;28;20286;-80
2022/01/01 11:26:39;;;;;;;;;;;12.30;99.90;;;;;;5027382;28;19929;-80
2022/01/01 11:29:04;;;;;;;;;;;12.40;99.90;;;;;;5044426;28;20070;-80
2022/01/01 11:31:30;;;;;;;;;;;12.50;99.90;;;;;;5043906;28;19928;-80
2022/01/01 11:34:00;;;;;;;;;;;12.60;99.90;;;;;;4994300;28;19979;-81
2022/01/01 11:36:28;;;;;;;;;;;12.60;99.90;;;;;;4994482;28;19933;-80
2022/01/01 11:38:54;;;;;;;;;;;12.70;99.90;;;;;;5012973;28;19922;-80
2022/01/01 11:41:19;;;;;;;;;;;12.80;99.90;;;;;;4994626;28;19928;-80
2022/01/01 11:43:48;;;;;;;;;;;12.90;99.90;;;;;;4994147;28;19921;-83
2022/01/01 11:46:13;;;;;;;;;;;12.90;99.90;;;;;;4994766;28;20311;-81
2022/01/01 11:48:38;;;;;;;;;;;13.00;99.90;;;;;;4994176;28;20007;-82
2022/01/01 11:51:19;;;;;;;;;;;13.10;99.90;;;;;;4994418;28;20382;-81
2022/01/01 11:54:04;;;;;;;;;;;13.10;99.90;;;;;;4994317;28;20011;-81
2022/01/01 11:56:49;;;;;;;;;;;13.10;99.90;;;;;;4983180;28;19921;-81
2022/01/01 11:59:22;;;;;;;;;;;13.10;99.90;;;;;;5026344;28;19992;-81
2022/01/01 12:01:49;;;;;;;;;;;13.10;99.90;;;;;;5018599;28;19933;-81
2022/01/01 12:04:33;;;;;;;;;;;13.00;99.90;;;;;;5026361;28;20381;-81
2022/01/01 12:06:59;;;;;;;;;;;13.00;99.90;;;;;;5026865;28;19926;-82
2022/01/01 12:09:24;;;;;;;;;;;13.00;99.90;;;;;;4994122;28;19932;-82
2022/01/01 12:11:53;;;;;;;;;;;13.00;99.90;;;;;;5009953;28;20348;-82
2022/01/01 12:14:21;;;;;;;;;;;12.90;99.90;;;;;;5010856;28;19921;-81
2022/01/01 12:16:48;;;;;;;;;;;12.90;99.90;;;;;;5014101;28;19968;-81
2022/01/01 12:19:14;;;;;;;;;;;12.90;99.90;;;;;;4986021;28;19925;-81
2022/01/01 12:21:40;;;;;;;;;;;12.80;99.90;;;;;;5045187;28;20373;-81
2022/01/01 12:24:08;;;;;;;;;;;12.90;99.90;;;;;;4996241;28;19922;-81
2022/01/01 12:26:34;;;;;;;;;;;12.90;99.90;;;;;;5046890;28;19921;-81
2022/01/01 12:29:05;;;;;;;;;;;12.90;99.90;;;;;;5013669;28;21326;-81
2022/01/01 12:31:30;;;;;;;;;;;12.90;99.90;;;;;;5010157;28;19921;-81
2022/01/01 12:33:59;;;;;;;;;;;12.90;99.90;;;;;;5026957;28;19928;-81
2022/01/01 12:36:31;;;;;;;;;;;12.90;99.90;;;;;;4997445;28;19928;-81
2022/01/01 12:38:59;;;;;;;;;;;12.90;99.90;;;;;;5033138;28;20027;-80
2022/01/01 12:41:30;;;;;;;;;;;12.90;99.90;;;;;;5017131;28;20019;-81
2022/01/01 12:43:57;;;;;;;;;;;12.90;99.90;;;;;;5022920;28;19953;-82
2022/01/01 12:46:26;;;;;;;;;;;12.90;99.90;;;;;;4996725;28;19926;-82
2022/01/01 12:48:52;;;;;;;;;;;12.90;99.90;;;;;;5013396;28;19932;-82
2022/01/01 12:51:21;;;;;;;;;;;12.90;99.90;;;;;;5030193;28;19925;-82
2022/01/01 12:53:47;;;;;;;;;;;13.00;99.90;;;;;;5030084;28;19922;-82
2022/01/01 12:56:14;;;;;;;;;;;13.10;99.90;;;;;;4997427;28;19928;-82
2022/01/01 12:58:44;;;;;;;;;;;13.20;99.90;;;;;;4998457;28;19932;-83
2022/01/01 13:01:15;;;;;;;;;;;13.20;99.90;;;;;;5014511;28;19975;-83
2022/01/01 13:03:42;;;;;;;;;;;13.30;99.90;;;;;;5031046;28;19931;-84
2022/01/01 13:06:08;;;;;;;;;;;13.30;99.90;;;;;;4997955;28;19921;-83
2022/01/01 13:08:38;;;;;;;;;;;13.30;99.90;;;;;;5046968;28;19932;-82
2022/01/01 13:11:04;;;;;;;;;;;13.30;99.90;;;;;;5013393;28;19921;-81
2022/01/01 13:13:29;;;;;;;;;;;13.20;99.90;;;;;;5062406;28;20301;-82
2022/01/01 13:15:55;;;;;;;;;;;13.20;99.90;;;;;;5042931;28;19976;-80
2022/01/01 13:18:24;;;;;;;;;;;13.10;99.90;;;;;;4996515;28;20436;-80
2022/01/01 13:20:51;;;;;;;;;;;13.10;99.90;;;;;;5013419;28;19928;-80
2022/01/01 13:23:17;;;;;;;;;;;13.00;99.90;;;;;;5012587;28;19921;-80
2022/01/01 13:25:44;;;;;;;;;;;13.00;99.90;;;;;;5013877;28;19921;-80
2022/01/01 13:28:09;;;;;;;;;;;12.90;99.90;;;;;;4996347;28;19969;-80
2022/01/01 13:30:35;;;;;;;;;;;12.80;99.90;;;;;;5037160;28;19944;-81
2022/01/01 13:33:01;;;;;;;;;;;12.80;99.90;;;;;;5025915;28;20290;-81
2022/01/01 13:35:27;;;;;;;;;;;12.80;99.90;;;;;;5026122;28;20326;-81
2022/01/01 13:37:53;;;;;;;;;;;12.70;99.90;;;;;;4982828;28;20385;-81
2022/01/01 13:40:19;;;;;;;;;;;12.70;99.90;;;;;;5028627;28;20382;-80
2022/01/01 13:42:44;;;;;;;;;;;12.70;99.90;;;;;;5044764;28;20055;-81
2022/01/01 13:45:10;;;;;;;;;;;12.70;99.90;;;;;;5097597;23;19948;-74
2022/01/01 13:47:35;;;;;;;;;;;12.60;99.90;;;;;;5032296;28;19932;-74
2022/01/01 13:50:11;;;;;;;;;;;12.60;99.90;;;;;;5016987;28;19943;-74
2022/01/01 13:52:37;;;;;;;;;;;12.60;99.90;;;;;;5033065;28;19921;-74
2022/01/01 13:55:04;;;;;;;;;;;12.60;99.90;;;;;;5012476;28;19921;-74
2022/01/01 13:57:31;;;;;;;;;;;12.60;99.90;;;;;;5027110;28;19928;-74
2022/01/01 13:59:57;;;;;;;;;;;12.60;99.90;;;;;;5014931;28;19921;-75
2022/01/01 14:02:24;;;;;;;;;;;12.60;99.90;;;;;;5031927;28;19975;-74
2022/01/01 14:04:49;;;;;;;;;;;12.60;99.90;;;;;;5030258;28;20016;-75
2022/01/01 14:07:19;;;;;;;;;;;12.60;99.90;;;;;;5014583;28;19933;-75
2022/01/01 14:10:03;;;;;;;;;;;12.60;99.90;;;;;;5031788;28;19947;-75
2022/01/01 14:12:29;;;;;;;;;;;12.70;99.90;;;;;;5015364;28;19925;-75
2022/01/01 14:15:21;;;;;;;;;;;12.60;99.90;;;;;;5031042;28;19921;-75